Aviation Digital Data Service (ADDS)

Output produced by METARs form (0257 UTC 21 June 2018)
found at http://www.aviationweather.gov/adds/metars/
 
METAR text: RJNK 210200Z 25008KT 200V280 9999 FEW008 SCT015 BKN250 25/19 Q1004
Conditions at: RJNK (KOMATSU (CIV/JAS, JP) observed 0200 UTC 21 June 2018
Temperature: 25.0°C (77°F)
Dewpoint: 19.0°C (66°F) [RH = 69%]
Pressure (altimeter): 29.65 inches Hg (1004.0 mb)
Winds: from the WSW (250 degrees) at 9 MPH (8 knots; 4.2 m/s)
Visibility: 6 or more miles (10+ km)
Ceiling: 25000 feet AGL
Clouds: few clouds at 800 feet AGL
scattered clouds at 1500 feet AGL
broken clouds at 25000 feet AGL
Weather: no significant weather observed at this time